createdAt,value
2023-05-05T00:01:25.262Z,17.55
2023-05-05T00:03:52.654Z,18.45
2023-05-05T00:06:19.450Z,19.73
2023-05-05T00:08:46.323Z,19.42
2023-05-05T00:11:13.116Z,19.77
2023-05-05T00:13:39.876Z,19.48
2023-05-05T00:16:06.838Z,20.05
2023-05-05T00:18:33.880Z,18.30
2023-05-05T00:21:00.909Z,18.05
2023-05-05T00:23:27.647Z,18.70
2023-05-05T00:25:54.410Z,18.65
2023-05-05T00:28:21.905Z,17.55
2023-05-05T00:30:48.718Z,18.80
2023-05-05T00:33:15.812Z,19.52
2023-05-05T00:35:42.657Z,18.63
2023-05-05T00:38:09.436Z,18.63
2023-05-05T00:40:37.821Z,18.95
2023-05-05T00:43:05.171Z,19.65
2023-05-05T00:45:32.048Z,19.90
2023-05-05T00:48:00.947Z,18.98
2023-05-05T00:50:30.063Z,20.42
2023-05-05T00:53:07.141Z,20.58
2023-05-05T00:55:34.802Z,21.50
2023-05-05T00:58:03.984Z,21.20
2023-05-05T01:00:31.658Z,19.48
2023-05-05T01:02:59.278Z,20.67
2023-05-05T01:05:27.879Z,20.42
2023-05-05T01:07:54.539Z,20.13
2023-05-05T01:10:42.549Z,20.48
2023-05-05T01:13:36.688Z,20.17
2023-05-05T01:16:16.883Z,20.00
2023-05-05T01:18:58.327Z,20.13
2023-05-05T01:21:40.309Z,20.23
2023-05-05T01:24:18.883Z,21.55
2023-05-05T01:27:04.681Z,21.67
2023-05-05T01:29:34.229Z,20.17
2023-05-05T01:32:06.678Z,20.90
2023-05-05T01:34:51.378Z,22.60
2023-05-05T01:37:43.555Z,21.20
2023-05-05T01:40:12.460Z,22.00
2023-05-05T01:42:43.504Z,21.90
2023-05-05T01:45:12.759Z,21.38
2023-05-05T01:47:42.891Z,20.65
2023-05-05T01:50:11.448Z,21.30
2023-05-05T01:52:40.098Z,21.52
2023-05-05T01:55:08.560Z,20.77
2023-05-05T01:57:37.186Z,21.60
2023-05-05T02:00:04.776Z,22.05
2023-05-05T02:02:35.060Z,20.77
2023-05-05T02:05:03.540Z,21.23
2023-05-05T02:07:32.656Z,21.33
2023-05-05T02:10:02.061Z,20.85
2023-05-05T02:12:31.672Z,21.20
2023-05-05T02:15:01.333Z,20.42
2023-05-05T02:17:30.077Z,20.67
2023-05-05T02:19:58.965Z,20.73
2023-05-05T02:22:25.722Z,21.05
2023-05-05T02:24:53.253Z,20.75
2023-05-05T02:27:21.814Z,21.20
2023-05-05T02:29:52.720Z,22.42
2023-05-05T02:32:41.112Z,22.70
2023-05-05T02:35:22.983Z,22.52
2023-05-05T02:38:08.805Z,21.10
2023-05-05T02:40:37.554Z,22.30
2023-05-05T02:43:08.148Z,22.80
2023-05-05T02:45:35.008Z,21.83
2023-05-05T02:48:05.000Z,22.27
2023-05-05T02:50:32.338Z,22.38
2023-05-05T02:53:00.486Z,21.70
2023-05-05T02:55:36.882Z,21.38
2023-05-05T02:58:11.737Z,22.20
2023-05-05T03:00:50.343Z,22.00
2023-05-05T03:03:29.426Z,22.55
2023-05-05T03:06:07.367Z,21.23
2023-05-05T03:08:43.491Z,22.00
2023-05-05T03:11:22.886Z,21.95
2023-05-05T03:13:54.662Z,21.77
2023-05-05T03:16:24.033Z,21.35
2023-05-05T03:18:52.460Z,21.95
2023-05-05T03:21:19.792Z,22.23
2023-05-05T03:23:46.634Z,23.83
2023-05-05T03:26:18.570Z,23.00
2023-05-05T03:28:45.277Z,21.42
2023-05-05T03:31:12.620Z,23.23
2023-05-05T03:33:39.414Z,23.83
2023-05-05T03:36:06.503Z,22.30
2023-05-05T03:38:33.275Z,22.58
2023-05-05T03:41:03.677Z,21.17
2023-05-05T03:43:30.525Z,22.23
2023-05-05T03:45:57.233Z,21.73
2023-05-05T03:48:24.037Z,23.30
2023-05-05T03:50:50.844Z,22.48
2023-05-05T03:53:17.568Z,23.40
2023-05-05T03:55:44.317Z,21.88
2023-05-05T03:58:11.212Z,21.73
2023-05-05T04:00:38.040Z,23.80
2023-05-05T04:03:04.968Z,22.25
2023-05-05T04:05:32.057Z,23.52
2023-05-05T04:07:58.836Z,22.02
2023-05-05T04:10:25.807Z,21.67
2023-05-05T04:12:52.673Z,22.77
2023-05-05T04:15:19.389Z,22.40
2023-05-05T04:17:46.102Z,21.33
2023-05-05T04:20:13.129Z,22.88
2023-05-05T04:22:39.813Z,22.60
2023-05-05T04:25:07.085Z,21.88
2023-05-05T04:27:34.054Z,21.15
2023-05-05T04:30:01.037Z,21.30
2023-05-05T04:32:27.751Z,21.60
2023-05-05T04:34:54.852Z,21.45
2023-05-05T04:37:21.638Z,21.92
2023-05-05T04:39:48.467Z,21.70
2023-05-05T04:42:15.163Z,21.98
2023-05-05T04:44:41.857Z,21.85
2023-05-05T04:47:08.651Z,21.85
2023-05-05T04:49:35.686Z,21.15
2023-05-05T04:52:02.451Z,21.30
2023-05-05T04:54:29.387Z,20.70
2023-05-05T04:56:56.162Z,21.00
2023-05-05T04:59:22.813Z,19.02
2023-05-05T05:01:49.570Z,20.67
2023-05-05T05:04:18.814Z,20.40
2023-05-05T05:06:45.996Z,19.70
2023-05-05T05:09:13.012Z,21.60
2023-05-05T05:11:39.922Z,21.08
2023-05-05T05:14:06.894Z,20.67
2023-05-05T05:16:33.644Z,20.92
2023-05-05T05:19:01.750Z,19.20
2023-05-05T05:21:28.849Z,20.23
2023-05-05T05:23:55.503Z,19.02
2023-05-05T05:26:22.698Z,19.33
2023-05-05T05:28:49.415Z,19.48
2023-05-05T05:31:16.148Z,19.00
2023-05-05T05:33:45.314Z,18.40
2023-05-05T05:36:12.034Z,17.00
2023-05-05T05:38:38.787Z,17.08
2023-05-05T05:41:07.383Z,17.90
2023-05-05T05:43:34.174Z,16.20
2023-05-05T05:46:00.918Z,19.23
2023-05-05T05:48:29.399Z,19.45
2023-05-05T05:50:57.019Z,19.80
2023-05-05T05:53:23.832Z,17.08
2023-05-05T05:55:50.967Z,16.60
2023-05-05T05:58:18.412Z,17.58
2023-05-05T06:00:45.200Z,18.77
2023-05-05T06:03:12.396Z,18.23
2023-05-05T06:05:39.423Z,18.27
2023-05-05T06:08:06.345Z,17.35
2023-05-05T06:10:33.744Z,18.90
2023-05-05T06:13:00.758Z,17.75
2023-05-05T06:15:27.546Z,17.83
2023-05-05T06:17:54.589Z,17.83
2023-05-05T06:20:21.364Z,17.98
2023-05-05T06:22:48.082Z,19.77
2023-05-05T06:25:14.860Z,19.15
2023-05-05T06:27:41.571Z,19.00
2023-05-05T06:30:09.759Z,18.50
2023-05-05T06:32:36.933Z,20.77
2023-05-05T06:35:03.868Z,20.63
2023-05-05T06:37:30.781Z,19.55
2023-05-05T06:39:57.490Z,18.67
2023-05-05T06:42:24.243Z,18.98
2023-05-05T06:44:51.090Z,18.50
2023-05-05T06:47:18.256Z,19.15
2023-05-05T06:49:44.933Z,18.02
2023-05-05T06:52:12.602Z,19.20
2023-05-05T06:54:39.408Z,19.52
2023-05-05T06:57:06.460Z,17.77
2023-05-05T06:59:33.172Z,19.02
2023-05-05T07:01:59.963Z,18.75
2023-05-05T07:04:26.836Z,20.10
2023-05-05T07:06:55.163Z,19.80
2023-05-05T07:09:22.120Z,18.58
2023-05-05T07:11:48.857Z,19.17
2023-05-05T07:14:15.641Z,18.90
2023-05-05T07:16:42.493Z,19.83
2023-05-05T07:19:09.313Z,19.50
2023-05-05T07:21:36.596Z,18.75
2023-05-05T07:24:03.879Z,19.00
2023-05-05T07:26:30.995Z,18.63
2023-05-05T07:28:58.938Z,19.20
2023-05-05T07:31:26.842Z,20.58
2023-05-05T07:33:53.918Z,19.73
2023-05-05T07:36:20.790Z,19.15
2023-05-05T07:38:47.489Z,19.10
2023-05-05T07:41:14.254Z,18.65
2023-05-05T07:43:44.179Z,17.35
2023-05-05T07:46:12.057Z,19.38
2023-05-05T07:48:41.511Z,17.42
2023-05-05T07:51:08.703Z,16.88
2023-05-05T07:53:35.497Z,18.25
2023-05-05T07:56:02.266Z,18.70
2023-05-05T07:58:28.950Z,18.83
2023-05-05T08:00:55.684Z,17.33
2023-05-05T08:03:24.367Z,19.17
2023-05-05T08:05:54.115Z,18.42
2023-05-05T08:08:24.818Z,16.42
2023-05-05T08:10:53.106Z,16.63
2023-05-05T08:13:20.374Z,14.50
2023-05-05T08:15:47.629Z,14.98
2023-05-05T08:18:14.881Z,15.07
2023-05-05T08:20:41.803Z,15.80
2023-05-05T08:23:08.576Z,17.65
2023-05-05T08:25:35.364Z,15.77
2023-05-05T08:28:02.291Z,16.10
2023-05-05T08:30:29.123Z,15.48
2023-05-05T08:32:56.482Z,15.38
2023-05-05T08:35:23.244Z,16.10
2023-05-05T08:37:51.635Z,15.95
2023-05-05T08:40:20.813Z,14.85
2023-05-05T08:42:47.862Z,14.35
2023-05-05T08:45:15.038Z,15.35
2023-05-05T08:47:43.274Z,13.70
2023-05-05T08:50:11.342Z,12.10
2023-05-05T08:52:44.566Z,13.68
2023-05-05T08:55:15.840Z,11.65
2023-05-05T08:57:56.120Z,11.82
2023-05-05T09:00:23.808Z,9.73
2023-05-05T09:02:51.155Z,10.20
2023-05-05T09:05:18.279Z,10.63
2023-05-05T09:07:47.251Z,11.27
2023-05-05T09:10:14.254Z,12.15
2023-05-05T09:12:42.381Z,11.30
2023-05-05T09:15:14.013Z,9.95
2023-05-05T09:17:41.557Z,11.10
2023-05-05T09:20:10.949Z,8.95
2023-05-05T09:22:45.477Z,10.02
2023-05-05T09:25:14.523Z,9.43
2023-05-05T09:27:46.532Z,11.35
2023-05-05T09:30:26.921Z,11.95
2023-05-05T09:32:55.109Z,11.60
2023-05-05T09:35:23.027Z,14.27
2023-05-05T09:37:49.847Z,12.30
2023-05-05T09:40:18.929Z,10.57
2023-05-05T09:42:46.128Z,12.27
2023-05-05T09:45:18.980Z,11.40
2023-05-05T09:47:47.221Z,11.15
2023-05-05T09:50:15.957Z,12.57
2023-05-05T09:52:43.278Z,12.02
2023-05-05T09:55:18.166Z,13.90
2023-05-05T09:57:47.254Z,14.32
2023-05-05T10:00:14.665Z,13.52
2023-05-05T10:02:41.902Z,12.98
2023-05-05T10:05:10.734Z,13.75
2023-05-05T10:07:39.354Z,14.18
2023-05-05T10:10:09.018Z,12.50
2023-05-05T10:12:37.019Z,14.85
2023-05-05T10:15:06.208Z,14.48
2023-05-05T10:17:36.574Z,12.02
2023-05-05T10:20:04.448Z,12.68
2023-05-05T10:22:35.374Z,11.82
2023-05-05T10:25:09.308Z,11.85
2023-05-05T10:27:44.961Z,9.93
2023-05-05T10:30:17.900Z,11.38
2023-05-05T10:33:00.512Z,13.38
2023-05-05T10:35:34.536Z,13.48
2023-05-05T10:38:02.903Z,14.15
2023-05-05T10:40:31.219Z,13.88
2023-05-05T10:42:58.947Z,11.63
2023-05-05T10:45:26.023Z,12.80
2023-05-05T10:47:53.811Z,11.70
2023-05-05T10:50:35.712Z,12.68
2023-05-05T10:53:22.161Z,11.45
2023-05-05T10:56:14.075Z,10.65
2023-05-05T10:58:58.325Z,13.88
2023-05-05T11:01:33.827Z,10.63
2023-05-05T11:04:36.261Z,9.80
2023-05-05T11:07:10.416Z,10.40
2023-05-05T11:09:58.568Z,14.05
2023-05-05T11:12:25.733Z,11.77
2023-05-05T11:15:26.239Z,11.07
2023-05-05T11:17:57.417Z,12.38
2023-05-05T11:20:45.360Z,12.82
2023-05-05T11:23:12.963Z,8.95
2023-05-05T11:25:44.612Z,9.80
2023-05-05T11:28:12.525Z,10.98
2023-05-05T11:30:58.695Z,11.63
2023-05-05T11:33:39.096Z,9.10
2023-05-05T11:36:12.800Z,10.38
2023-05-05T11:38:39.464Z,11.15
2023-05-05T11:41:13.492Z,10.38
2023-05-05T11:43:41.781Z,11.73
2023-05-05T11:46:17.086Z,12.05
2023-05-05T11:48:47.652Z,11.38
2023-05-05T11:51:16.179Z,13.70
2023-05-05T11:53:44.243Z,13.80
2023-05-05T11:56:12.101Z,15.43
2023-05-05T11:58:38.934Z,11.27
2023-05-05T12:01:09.423Z,11.10
2023-05-05T12:03:37.260Z,10.50
2023-05-05T12:06:05.564Z,10.30
2023-05-05T12:08:39.985Z,12.70
2023-05-05T12:11:11.534Z,12.73
2023-05-05T12:13:38.232Z,9.98
2023-05-05T12:16:14.998Z,13.05
2023-05-05T12:18:42.663Z,11.52
2023-05-05T12:21:20.055Z,9.95
2023-05-05T12:23:47.075Z,12.88
2023-05-05T12:26:28.758Z,9.90
2023-05-05T12:28:59.652Z,9.98
2023-05-05T12:31:40.414Z,10.73
2023-05-05T12:34:11.513Z,9.40
2023-05-05T12:36:39.073Z,11.80
2023-05-05T12:39:05.837Z,13.02
2023-05-05T12:41:33.077Z,9.70
2023-05-05T12:44:01.554Z,9.68
2023-05-05T12:46:32.031Z,12.63
2023-05-05T12:49:06.777Z,12.65
2023-05-05T12:51:35.172Z,8.73
2023-05-05T12:54:06.412Z,9.00
2023-05-05T12:56:34.984Z,9.18
2023-05-05T12:59:03.284Z,8.73
2023-05-05T13:01:30.563Z,9.05
2023-05-05T13:04:13.682Z,9.68
2023-05-05T13:06:42.793Z,10.88
2023-05-05T13:09:10.278Z,7.93
2023-05-05T13:11:38.279Z,9.77
2023-05-05T13:14:06.384Z,9.13
2023-05-05T13:16:33.891Z,9.30
2023-05-05T13:19:00.920Z,8.95
2023-05-05T13:21:28.067Z,8.25
2023-05-05T13:23:59.052Z,8.25
2023-05-05T13:26:31.741Z,7.53
2023-05-05T13:28:58.515Z,7.97
2023-05-05T13:31:25.443Z,10.20
2023-05-05T13:33:52.346Z,10.20
2023-05-05T13:36:19.015Z,9.70
2023-05-05T13:38:46.177Z,9.93
2023-05-05T13:41:12.943Z,10.30
2023-05-05T13:43:39.629Z,9.43
2023-05-05T13:46:19.250Z,7.97
2023-05-05T13:48:47.320Z,7.15
2023-05-05T13:51:14.125Z,8.82
2023-05-05T13:53:43.773Z,10.38
2023-05-05T13:56:10.901Z,9.23
2023-05-05T13:58:37.989Z,8.48
2023-05-05T14:01:04.921Z,8.10
2023-05-05T14:03:31.769Z,8.27
2023-05-05T14:05:58.429Z,8.18
2023-05-05T14:08:25.213Z,9.63
2023-05-05T14:10:52.336Z,6.80
2023-05-05T14:13:19.250Z,6.45
2023-05-05T14:15:46.462Z,7.10
2023-05-05T14:18:13.437Z,8.50
2023-05-05T14:20:40.181Z,5.82
2023-05-05T14:23:06.809Z,6.90
2023-05-05T14:25:33.857Z,4.28
2023-05-05T14:28:00.682Z,7.93
2023-05-05T14:30:27.449Z,5.82
2023-05-05T14:32:54.226Z,6.53
2023-05-05T14:35:20.965Z,6.57
2023-05-05T14:37:47.627Z,5.40
2023-05-05T14:40:14.395Z,5.78
2023-05-05T14:42:41.028Z,5.05
2023-05-05T14:45:09.904Z,5.43
2023-05-05T14:47:36.752Z,5.07
2023-05-05T14:50:04.006Z,5.68
2023-05-05T14:52:30.793Z,6.07
2023-05-05T14:54:57.490Z,6.00
2023-05-05T14:57:24.203Z,4.82
2023-05-05T14:59:52.997Z,4.60
2023-05-05T15:02:19.830Z,4.38
2023-05-05T15:04:48.521Z,5.05
2023-05-05T15:07:16.578Z,4.28
2023-05-05T15:09:43.347Z,3.30
2023-05-05T15:12:10.016Z,5.72
2023-05-05T15:14:38.058Z,4.93
2023-05-05T15:17:05.317Z,6.05
2023-05-05T15:19:32.087Z,5.13
2023-05-05T15:21:58.751Z,5.60
2023-05-05T15:24:26.090Z,5.55
2023-05-05T15:26:52.715Z,4.80
2023-05-05T15:29:19.440Z,4.40
2023-05-05T15:31:46.201Z,4.43
2023-05-05T15:34:12.905Z,3.65
2023-05-05T15:36:39.530Z,4.13
2023-05-05T15:39:06.368Z,4.57
2023-05-05T15:41:34.597Z,4.78
2023-05-05T15:44:03.138Z,5.10
2023-05-05T15:46:33.024Z,4.85
2023-05-05T15:49:00.213Z,5.15
2023-05-05T15:51:27.319Z,3.95
2023-05-05T15:53:54.106Z,4.22
2023-05-05T15:56:20.842Z,4.93
2023-05-05T15:58:47.613Z,3.55
2023-05-05T16:01:14.380Z,4.22
2023-05-05T16:03:41.268Z,7.35
2023-05-05T16:06:10.057Z,6.38
2023-05-05T16:08:36.977Z,3.90
2023-05-05T16:11:04.338Z,6.65
2023-05-05T16:13:31.093Z,4.22
2023-05-05T16:15:57.879Z,6.03
2023-05-05T16:18:24.561Z,5.57
2023-05-05T16:20:51.222Z,4.47
2023-05-05T16:23:17.980Z,3.88
2023-05-05T16:25:44.851Z,4.05
2023-05-05T16:28:11.637Z,4.78
2023-05-05T16:30:39.829Z,4.85
2023-05-05T16:33:06.730Z,4.00
2023-05-05T16:35:33.644Z,4.18
2023-05-05T16:38:00.458Z,3.83
2023-05-05T16:40:27.117Z,4.20
2023-05-05T16:42:53.825Z,4.60
2023-05-05T16:45:20.563Z,6.75
2023-05-05T16:47:47.312Z,6.07
2023-05-05T16:50:14.100Z,3.90
2023-05-05T16:52:40.839Z,5.63
2023-05-05T16:55:08.187Z,5.32
2023-05-05T16:57:35.057Z,4.70
2023-05-05T17:00:01.805Z,4.13
2023-05-05T17:02:28.550Z,4.88
2023-05-05T17:04:55.266Z,4.82
2023-05-05T17:07:22.287Z,4.50
2023-05-05T17:09:48.977Z,4.90
2023-05-05T17:12:15.704Z,3.78
2023-05-05T17:14:43.081Z,4.18
2023-05-05T17:17:10.223Z,4.18
2023-05-05T17:19:36.928Z,3.70
2023-05-05T17:22:03.631Z,3.63
2023-05-05T17:24:30.351Z,3.40
2023-05-05T17:26:57.126Z,3.47
2023-05-05T17:29:24.104Z,3.65
2023-05-05T17:31:50.913Z,2.92
2023-05-05T17:34:17.794Z,3.90
2023-05-05T17:36:44.652Z,3.03
2023-05-05T17:39:11.446Z,2.80
2023-05-05T17:41:38.127Z,2.63
2023-05-05T17:44:05.196Z,3.28
2023-05-05T17:46:31.897Z,2.97
2023-05-05T17:48:58.741Z,3.40
2023-05-05T17:51:26.217Z,3.20
2023-05-05T17:53:53.093Z,3.28
2023-05-05T17:56:19.739Z,3.40
2023-05-05T17:58:46.597Z,3.42
2023-05-05T18:01:23.385Z,2.53
2023-05-05T18:03:50.359Z,3.03
2023-05-05T18:06:17.209Z,2.85
2023-05-05T18:08:44.793Z,3.20
2023-05-05T18:11:11.534Z,3.67
2023-05-05T18:13:38.888Z,3.38
2023-05-05T18:16:06.311Z,3.08
2023-05-05T18:18:33.179Z,3.72
2023-05-05T18:21:00.025Z,3.20
2023-05-05T18:23:26.752Z,8.35
2023-05-05T18:25:53.570Z,4.60
2023-05-05T18:28:20.572Z,2.78
2023-05-05T18:30:47.279Z,4.90
2023-05-05T18:33:14.213Z,3.88
2023-05-05T18:35:40.878Z,4.30
2023-05-05T18:38:07.639Z,2.97
2023-05-05T18:40:34.374Z,2.65
2023-05-05T18:43:01.117Z,3.03
2023-05-05T18:45:27.842Z,2.83
2023-05-05T18:47:54.786Z,3.13
2023-05-05T18:50:21.635Z,3.60
2023-05-05T18:52:48.361Z,2.78
2023-05-05T18:55:15.064Z,3.20
2023-05-05T18:57:41.808Z,3.10
2023-05-05T19:00:10.058Z,3.63
2023-05-05T19:02:36.959Z,3.33
2023-05-05T19:05:04.071Z,4.53
2023-05-05T19:07:35.532Z,5.20
2023-05-05T19:10:04.538Z,4.40
2023-05-05T19:12:31.288Z,3.60
2023-05-05T19:14:58.230Z,3.53
2023-05-05T19:17:25.197Z,3.72
2023-05-05T19:19:52.006Z,3.83
2023-05-05T19:22:20.614Z,4.20
2023-05-05T19:24:47.379Z,3.97
2023-05-05T19:27:16.422Z,3.78
2023-05-05T19:29:43.743Z,3.75
2023-05-05T19:32:10.816Z,5.10
2023-05-05T19:34:37.643Z,3.90
2023-05-05T19:37:04.450Z,4.75
2023-05-05T19:39:31.223Z,4.47
2023-05-05T19:41:57.851Z,5.63
2023-05-05T19:44:24.639Z,5.63
2023-05-05T19:46:53.013Z,5.90
2023-05-05T19:49:19.788Z,5.50
2023-05-05T19:51:49.778Z,5.95
2023-05-05T19:54:16.595Z,6.05
2023-05-05T19:56:43.311Z,6.40
2023-05-05T19:59:10.811Z,6.05
2023-05-05T20:01:37.683Z,6.13
2023-05-05T20:04:04.659Z,5.82
2023-05-05T20:06:32.831Z,6.85
2023-05-05T20:09:00.426Z,6.43
2023-05-05T20:11:27.319Z,6.20
2023-05-05T20:13:54.284Z,6.75
2023-05-05T20:16:24.303Z,9.35
2023-05-05T20:18:51.295Z,10.07
2023-05-05T20:21:18.536Z,7.68
2023-05-05T20:23:46.062Z,6.78
2023-05-05T20:26:13.338Z,5.40
2023-05-05T20:28:41.859Z,4.97
2023-05-05T20:31:10.970Z,4.07
2023-05-05T20:33:37.821Z,4.05
2023-05-05T20:36:04.881Z,3.50
2023-05-05T20:38:31.762Z,3.58
2023-05-05T20:40:58.553Z,3.10
2023-05-05T20:43:25.612Z,4.05
2023-05-05T20:45:52.403Z,2.88
2023-05-05T20:48:19.290Z,2.65
2023-05-05T20:50:46.091Z,2.67
2023-05-05T20:53:16.387Z,3.22
2023-05-05T20:55:43.096Z,2.92
2023-05-05T20:58:09.850Z,2.30
2023-05-05T21:00:36.850Z,2.88
2023-05-05T21:03:04.940Z,2.50
2023-05-05T21:05:31.972Z,2.70
2023-05-05T21:08:00.792Z,2.80
2023-05-05T21:10:28.846Z,2.42
2023-05-05T21:12:55.641Z,2.08
2023-05-05T21:15:22.719Z,2.42
2023-05-05T21:17:49.498Z,2.20
2023-05-05T21:20:16.948Z,2.75
2023-05-05T21:22:43.728Z,2.65
2023-05-05T21:25:15.723Z,2.40
2023-05-05T21:27:42.729Z,3.03
2023-05-05T21:30:11.299Z,2.40
2023-05-05T21:32:39.642Z,2.45
2023-05-05T21:35:08.122Z,2.60
2023-05-05T21:37:36.525Z,2.47
2023-05-05T21:40:03.371Z,2.60
2023-05-05T21:42:30.827Z,2.60
2023-05-05T21:44:57.601Z,2.28
2023-05-05T21:47:24.333Z,2.83
2023-05-05T21:49:50.998Z,2.80
2023-05-05T21:52:17.845Z,2.45
2023-05-05T21:54:44.898Z,2.40
2023-05-05T21:57:11.549Z,2.05
2023-05-05T21:59:38.535Z,2.20
2023-05-05T22:02:05.404Z,2.20
2023-05-05T22:04:32.121Z,2.42
2023-05-05T22:06:58.809Z,2.42
2023-05-05T22:09:25.634Z,2.97
2023-05-05T22:11:52.316Z,2.70
2023-05-05T22:14:19.037Z,2.78
2023-05-05T22:16:45.917Z,2.88
2023-05-05T22:19:12.713Z,2.50
2023-05-05T22:21:39.652Z,2.50
2023-05-05T22:24:07.235Z,2.47
2023-05-05T22:26:34.022Z,2.20
2023-05-05T22:29:01.004Z,2.30
2023-05-05T22:31:29.243Z,2.30
2023-05-05T22:33:56.041Z,2.10
2023-05-05T22:36:22.993Z,2.30
2023-05-05T22:38:49.728Z,2.58
2023-05-05T22:41:16.577Z,2.75
2023-05-05T22:43:43.361Z,2.30
2023-05-05T22:46:10.088Z,2.05
2023-05-05T22:48:36.815Z,2.30
2023-05-05T22:51:03.802Z,2.38
2023-05-05T22:53:30.417Z,2.20
2023-05-05T22:55:58.249Z,2.58
2023-05-05T22:58:25.831Z,2.35
2023-05-05T23:00:52.690Z,2.03
2023-05-05T23:03:19.418Z,2.30
2023-05-05T23:05:46.206Z,2.13
2023-05-05T23:08:12.969Z,2.40
2023-05-05T23:10:39.720Z,2.00
2023-05-05T23:13:06.500Z,1.92
2023-05-05T23:15:33.307Z,2.70
2023-05-05T23:17:59.994Z,2.20
2023-05-05T23:20:26.957Z,2.22
2023-05-05T23:22:53.585Z,2.30
2023-05-05T23:25:20.364Z,2.25
2023-05-05T23:27:48.014Z,2.65
2023-05-05T23:30:15.018Z,2.33
2023-05-05T23:32:42.708Z,3.50
2023-05-05T23:35:10.195Z,2.53
2023-05-05T23:37:37.180Z,2.30
2023-05-05T23:40:04.778Z,2.20
2023-05-05T23:42:31.739Z,2.30
2023-05-05T23:44:58.385Z,2.20
2023-05-05T23:47:25.080Z,2.38
2023-05-05T23:49:51.795Z,2.05
2023-05-05T23:52:18.583Z,2.50
2023-05-05T23:54:45.607Z,2.50
2023-05-05T23:57:12.363Z,2.72
2023-05-05T23:59:39.768Z,2.63
